createdAt,value
2024-02-19T00:00:54.874Z,2715.00
2024-02-19T00:01:55.070Z,2702.00
2024-02-19T00:02:54.960Z,2695.00
2024-02-19T00:03:55.021Z,2678.00
2024-02-19T00:04:55.053Z,2666.00
2024-02-19T00:05:55.097Z,2663.00
2024-02-19T00:06:55.152Z,2650.00
2024-02-19T00:07:55.313Z,2641.00
2024-02-19T00:08:55.220Z,2657.00
2024-02-19T00:09:55.232Z,2647.00
2024-02-19T00:10:55.222Z,2652.00
2024-02-19T00:11:55.255Z,2647.00
2024-02-19T00:12:55.446Z,2663.00
2024-02-19T00:13:55.357Z,2657.00
2024-02-19T00:14:55.422Z,2618.00
2024-02-19T00:15:55.476Z,2607.00
2024-02-19T00:16:55.460Z,2604.00
2024-02-19T00:17:55.579Z,2615.00
2024-02-19T00:18:55.814Z,2596.00
2024-02-19T00:19:55.666Z,2587.00
2024-02-19T00:20:55.689Z,2595.00
2024-02-19T00:21:55.745Z,2624.00
2024-02-19T00:22:55.825Z,2647.00
2024-02-19T00:23:55.831Z,2659.00
2024-02-19T00:24:55.867Z,2674.00
2024-02-19T00:25:55.903Z,2708.00
2024-02-19T00:26:55.963Z,2714.00
2024-02-19T00:27:56.043Z,2704.00
2024-02-19T00:28:55.968Z,2729.00
2024-02-19T00:29:55.941Z,2731.00
2024-02-19T00:30:56.097Z,2739.00
2024-02-19T00:31:56.144Z,2749.00
2024-02-19T00:32:56.280Z,2758.00
2024-02-19T00:33:56.444Z,2776.00
2024-02-19T00:34:56.302Z,2747.00
2024-02-19T00:35:56.304Z,2734.00
2024-02-19T00:36:56.416Z,2727.00
2024-02-19T00:37:56.425Z,2736.00
2024-02-19T00:38:56.442Z,2728.00
2024-02-19T00:39:57.013Z,2722.00
2024-02-19T00:40:56.524Z,2721.00
2024-02-19T00:41:56.549Z,2736.00
2024-02-19T00:42:56.714Z,2727.00
2024-02-19T00:43:56.656Z,2722.00
2024-02-19T00:44:56.662Z,2728.00
2024-02-19T00:45:56.877Z,2712.00
2024-02-19T00:46:56.796Z,2698.00
2024-02-19T00:47:56.824Z,2634.00
2024-02-19T00:48:56.834Z,2594.00
2024-02-19T00:49:57.005Z,2613.00
2024-02-19T00:50:56.893Z,2589.00
2024-02-19T00:51:56.966Z,2592.00
2024-02-19T00:52:57.010Z,2626.00
2024-02-19T00:53:57.065Z,2632.00
2024-02-19T00:54:57.183Z,2638.00
2024-02-19T00:55:57.141Z,2642.00
2024-02-19T00:56:57.251Z,2635.00
2024-02-19T00:57:57.317Z,2664.00
2024-02-19T00:58:57.299Z,2660.00
2024-02-19T00:59:57.348Z,2663.00
2024-02-19T01:00:57.454Z,2659.00
2024-02-19T01:01:57.650Z,2655.00
2024-02-19T01:02:57.513Z,2654.00
2024-02-19T01:03:57.568Z,2653.00
2024-02-19T01:04:57.649Z,2648.00
2024-02-19T01:05:57.633Z,2641.00
2024-02-19T01:06:57.735Z,2644.00
2024-02-19T01:07:58.087Z,2643.00
2024-02-19T01:08:57.640Z,2647.00
2024-02-19T01:09:57.784Z,2651.00
2024-02-19T01:10:57.781Z,2652.00
2024-02-19T01:11:57.865Z,2659.00
2024-02-19T01:12:57.914Z,2656.00
2024-02-19T01:13:57.875Z,2659.00
2024-02-19T01:14:57.980Z,2648.00
2024-02-19T01:15:57.979Z,2654.00
2024-02-19T01:16:58.038Z,2662.00
2024-02-19T01:17:58.100Z,2658.00
2024-02-19T01:18:58.264Z,2660.00
2024-02-19T01:19:58.263Z,2659.00
2024-02-19T01:20:58.218Z,2664.00
2024-02-19T01:21:58.318Z,2666.00
2024-02-19T01:22:58.332Z,2661.00
2024-02-19T01:23:58.252Z,2666.00
2024-02-19T01:24:58.351Z,2664.00
2024-02-19T01:25:58.394Z,2658.00
2024-02-19T01:26:58.408Z,2672.00
2024-02-19T01:27:58.487Z,2673.00
2024-02-19T01:28:58.472Z,2688.00
2024-02-19T01:29:58.512Z,2696.00
2024-02-19T01:30:58.623Z,2678.00
2024-02-19T01:31:58.641Z,2661.00
2024-02-19T01:32:58.736Z,2660.00
2024-02-19T01:33:58.788Z,2639.00
2024-02-19T01:34:59.010Z,2655.00
2024-02-19T01:35:58.871Z,2644.00
2024-02-19T01:36:59.029Z,2646.00
2024-02-19T01:37:58.945Z,2651.00
2024-02-19T01:38:58.948Z,2625.00
2024-02-19T01:39:59.004Z,2636.00
2024-02-19T01:40:59.105Z,2623.00
2024-02-19T01:41:59.282Z,2604.00
2024-02-19T01:42:59.254Z,2576.00
2024-02-19T01:43:59.219Z,2545.00
2024-02-19T01:44:59.286Z,2544.00
2024-02-19T01:45:59.253Z,2541.00
2024-02-19T01:46:59.290Z,2528.00
2024-02-19T01:47:59.539Z,2521.00
2024-02-19T01:48:59.382Z,2531.00
2024-02-19T01:49:59.469Z,2535.00
2024-02-19T01:50:59.501Z,2506.00
2024-02-19T01:51:59.584Z,2506.00
2024-02-19T01:52:59.554Z,2513.00
2024-02-19T01:53:59.583Z,2497.00
2024-02-19T01:54:59.712Z,2507.00
2024-02-19T01:55:59.711Z,2507.00
2024-02-19T01:56:59.699Z,2504.00
2024-02-19T01:57:59.862Z,2512.00
2024-02-19T01:58:59.842Z,2507.00
2024-02-19T01:59:59.842Z,2504.00
2024-02-19T02:01:00.084Z,2515.00
2024-02-19T02:01:59.995Z,2524.00
2024-02-19T02:03:00.103Z,2521.00
2024-02-19T02:04:00.126Z,2529.00
2024-02-19T02:05:00.059Z,2533.00
2024-02-19T02:06:00.133Z,2524.00
2024-02-19T02:07:00.270Z,2518.00
2024-02-19T02:08:00.875Z,2505.00
2024-02-19T02:09:00.206Z,2490.00
2024-02-19T02:10:00.329Z,2499.00
2024-02-19T02:11:00.415Z,2497.00
2024-02-19T02:12:00.309Z,2502.00
2024-02-19T02:13:00.475Z,2512.00
2024-02-19T02:14:00.430Z,2507.00
2024-02-19T02:15:00.455Z,2517.00
2024-02-19T02:16:00.507Z,2516.00
2024-02-19T02:17:00.545Z,2526.00
2024-02-19T02:18:00.629Z,2507.00
2024-02-19T02:19:00.778Z,2462.00
2024-02-19T02:20:00.852Z,2463.00
2024-02-19T02:21:00.710Z,2450.00
2024-02-19T02:22:00.743Z,2450.00
2024-02-19T02:23:00.694Z,2460.00
2024-02-19T02:24:00.805Z,2463.00
2024-02-19T02:25:00.833Z,2468.00
2024-02-19T02:26:00.817Z,2472.00
2024-02-19T02:27:00.849Z,2488.00
2024-02-19T02:28:00.998Z,2485.00
2024-02-19T02:29:00.952Z,2477.00
2024-02-19T02:30:00.968Z,2470.00
2024-02-19T02:31:01.096Z,2457.00
2024-02-19T02:32:01.069Z,2447.00
2024-02-19T02:33:01.221Z,2453.00
2024-02-19T02:34:01.445Z,2466.00
2024-02-19T02:35:01.148Z,2473.00
2024-02-19T02:36:01.160Z,2464.00
2024-02-19T02:37:01.245Z,2462.00
2024-02-19T02:38:01.403Z,2438.00
2024-02-19T02:39:01.344Z,2447.00
2024-02-19T02:40:01.293Z,2439.00
2024-02-19T02:41:01.336Z,2440.00
2024-02-19T02:42:01.308Z,2434.00
2024-02-19T02:43:01.373Z,2436.00
2024-02-19T02:44:01.354Z,2437.00
2024-02-19T02:45:01.364Z,2409.00
2024-02-19T02:46:01.486Z,2400.00
2024-02-19T02:47:01.475Z,2399.00
2024-02-19T02:48:01.653Z,2390.00
2024-02-19T02:49:01.808Z,2388.00
2024-02-19T02:50:01.666Z,2369.00
2024-02-19T02:51:01.695Z,2364.00
2024-02-19T02:52:01.748Z,2407.00
2024-02-19T02:53:01.779Z,2407.00
2024-02-19T02:54:01.763Z,2399.00
2024-02-19T02:55:01.846Z,2393.00
2024-02-19T02:56:01.846Z,2377.00
2024-02-19T02:57:01.914Z,2374.00
2024-02-19T02:58:01.988Z,2370.00
2024-02-19T02:59:02.023Z,2359.00
2024-02-19T03:00:02.050Z,2361.00
2024-02-19T03:01:02.163Z,2341.00
2024-02-19T03:02:02.199Z,2329.00
2024-02-19T03:03:02.186Z,2320.00
2024-02-19T03:04:02.263Z,2334.00
2024-02-19T03:05:02.270Z,2326.00
2024-02-19T03:06:02.324Z,2327.00
2024-02-19T03:07:02.439Z,2330.00
2024-02-19T03:08:02.395Z,2335.00
2024-02-19T03:09:02.453Z,2345.00
2024-02-19T03:10:02.531Z,2336.00
2024-02-19T03:11:02.598Z,2342.00
2024-02-19T03:12:02.545Z,2327.00
2024-02-19T03:13:02.615Z,2298.00
2024-02-19T03:14:02.668Z,2291.00
2024-02-19T03:15:02.674Z,2285.00
2024-02-19T03:16:02.818Z,2290.00
2024-02-19T03:17:02.621Z,2279.00
2024-02-19T03:18:02.768Z,2273.00
2024-02-19T03:19:02.767Z,2278.00
2024-02-19T03:20:02.748Z,2302.00
2024-02-19T03:21:02.827Z,2311.00
2024-02-19T03:22:02.869Z,2320.00
2024-02-19T03:23:02.970Z,2322.00
2024-02-19T03:24:02.984Z,2332.00
2024-02-19T03:25:03.158Z,2364.00
2024-02-19T03:26:03.114Z,2377.00
2024-02-19T03:27:03.080Z,2375.00
2024-02-19T03:28:03.152Z,2364.00
2024-02-19T03:29:03.150Z,2351.00
2024-02-19T03:30:03.250Z,2345.00
2024-02-19T03:31:03.332Z,2323.00
2024-02-19T03:32:03.314Z,2327.00
2024-02-19T03:33:03.502Z,2322.00
2024-02-19T03:34:03.539Z,2341.00
2024-02-19T03:35:03.454Z,2346.00
2024-02-19T03:36:03.426Z,2335.00
2024-02-19T03:37:03.480Z,2352.00
2024-02-19T03:38:03.533Z,2365.00
2024-02-19T03:39:03.696Z,2344.00
2024-02-19T03:40:03.695Z,2339.00
2024-02-19T03:41:03.689Z,2315.00
2024-02-19T03:42:03.747Z,2311.00
2024-02-19T03:43:03.879Z,2316.00
2024-02-19T03:44:03.843Z,2302.00
2024-02-19T03:45:04.755Z,2304.00
2024-02-19T03:46:04.008Z,2327.00
2024-02-19T03:47:03.989Z,2310.00
2024-02-19T03:48:04.043Z,2307.00
2024-02-19T03:49:04.217Z,2290.00
2024-02-19T03:50:04.083Z,2278.00
2024-02-19T03:51:04.094Z,2256.00
2024-02-19T03:52:04.252Z,2242.00
2024-02-19T03:53:04.214Z,2268.00
2024-02-19T03:54:04.368Z,2273.00
2024-02-19T03:55:04.316Z,2282.00
2024-02-19T03:56:04.377Z,2302.00
2024-02-19T03:57:04.414Z,2333.00
2024-02-19T03:58:04.460Z,2358.00
2024-02-19T03:59:04.482Z,2381.00
2024-02-19T04:00:04.458Z,2387.00
2024-02-19T04:01:08.217Z,2387.00
2024-02-19T04:02:04.527Z,2388.00
2024-02-19T04:03:04.524Z,2385.00
2024-02-19T04:04:04.607Z,2383.00
2024-02-19T04:05:04.567Z,2395.00
2024-02-19T04:06:04.542Z,2380.00
2024-02-19T04:07:04.647Z,2383.00
2024-02-19T04:08:06.557Z,2378.00
2024-02-19T04:09:04.532Z,2378.00
2024-02-19T04:10:04.581Z,2373.00
2024-02-19T04:11:04.553Z,2380.00
2024-02-19T04:12:04.538Z,2389.00
2024-02-19T04:13:04.581Z,2348.00
2024-02-19T04:14:04.588Z,2330.00
2024-02-19T04:15:04.570Z,2330.00
2024-02-19T04:16:04.609Z,2333.00
2024-02-19T04:17:06.948Z,2338.00
2024-02-19T04:18:04.703Z,2338.00
2024-02-19T04:19:04.684Z,2341.00
2024-02-19T04:20:04.582Z,2344.00
2024-02-19T04:21:04.548Z,2351.00
2024-02-19T04:22:04.757Z,2368.00
2024-02-19T04:23:04.609Z,2355.00
2024-02-19T04:24:04.558Z,2362.00
2024-02-19T04:25:04.610Z,2369.00
2024-02-19T04:26:04.549Z,2363.00
2024-02-19T04:27:04.560Z,2368.00
2024-02-19T04:28:04.685Z,2361.00
2024-02-19T04:29:04.553Z,2353.00
2024-02-19T04:30:04.596Z,2365.00
2024-02-19T04:31:04.624Z,2361.00
2024-02-19T04:32:04.586Z,2362.00
2024-02-19T04:33:04.681Z,2385.00
2024-02-19T04:34:04.742Z,2401.00
2024-02-19T04:35:04.720Z,2394.00
2024-02-19T04:36:05.650Z,2394.00
2024-02-19T04:37:04.606Z,2374.00
2024-02-19T04:38:04.642Z,2395.00
2024-02-19T04:39:04.666Z,2377.00
2024-02-19T04:40:04.622Z,2392.00
2024-02-19T04:41:04.725Z,2394.00
2024-02-19T04:42:04.590Z,2393.00
2024-02-19T04:43:05.103Z,2382.00
2024-02-19T04:44:04.613Z,2390.00
2024-02-19T04:45:04.720Z,2375.00
2024-02-19T04:46:04.741Z,2364.00
2024-02-19T04:47:04.773Z,2365.00
2024-02-19T04:48:04.926Z,2367.00
2024-02-19T04:49:04.961Z,2371.00
2024-02-19T04:50:05.009Z,2376.00
2024-02-19T04:51:04.943Z,2382.00
2024-02-19T04:52:05.078Z,2371.00
2024-02-19T04:53:05.019Z,2374.00
2024-02-19T04:54:04.940Z,2374.00
2024-02-19T04:55:05.073Z,2364.00
2024-02-19T04:56:04.970Z,2359.00
2024-02-19T04:57:05.166Z,2346.00
2024-02-19T04:58:12.911Z,600.00
2024-02-19T04:59:12.884Z,600.00
2024-02-19T05:00:12.917Z,600.00
2024-02-19T05:01:12.988Z,600.00
2024-02-19T05:02:12.937Z,600.00
2024-02-19T05:03:14.807Z,608.00
2024-02-19T05:04:12.985Z,608.00
2024-02-19T05:05:13.034Z,608.00
2024-02-19T05:06:12.882Z,605.00
2024-02-19T05:07:12.866Z,612.00
2024-02-19T05:08:12.953Z,613.00
2024-02-19T05:09:12.851Z,599.00
2024-02-19T05:10:12.910Z,610.00
2024-02-19T05:11:12.981Z,604.00
2024-02-19T05:12:12.869Z,606.00
2024-02-19T05:13:13.023Z,612.00
2024-02-19T05:14:12.941Z,610.00
2024-02-19T05:15:12.928Z,620.00
2024-02-19T05:16:12.919Z,614.00
2024-02-19T05:17:12.894Z,612.00
2024-02-19T05:18:13.058Z,602.00
2024-02-19T05:19:13.082Z,600.00
2024-02-19T05:20:12.916Z,606.00
2024-02-19T05:21:12.889Z,618.00
2024-02-19T05:22:12.960Z,621.00
2024-02-19T05:23:12.935Z,613.00
2024-02-19T05:24:12.906Z,614.00
2024-02-19T05:25:12.855Z,614.00
2024-02-19T05:26:12.989Z,615.00
2024-02-19T05:27:12.933Z,615.00
2024-02-19T05:28:13.115Z,621.00
2024-02-19T05:29:12.914Z,622.00
2024-02-19T05:30:12.982Z,619.00
2024-02-19T05:31:13.029Z,614.00
2024-02-19T05:32:13.577Z,619.00
2024-02-19T05:33:12.915Z,620.00
2024-02-19T05:34:13.138Z,623.00
2024-02-19T05:35:12.907Z,628.00
2024-02-19T05:36:12.903Z,635.00
2024-02-19T05:37:12.945Z,631.00
2024-02-19T05:38:12.898Z,617.00
2024-02-19T05:39:12.950Z,620.00
2024-02-19T05:40:13.002Z,613.00
2024-02-19T05:41:12.923Z,609.00
2024-02-19T05:42:12.901Z,612.00
2024-02-19T05:43:12.980Z,619.00
2024-02-19T05:44:12.852Z,620.00
2024-02-19T05:45:12.976Z,618.00
2024-02-19T05:46:12.952Z,631.00
2024-02-19T05:47:12.893Z,619.00
2024-02-19T05:48:12.964Z,618.00
2024-02-19T05:49:12.974Z,612.00
2024-02-19T05:50:13.095Z,618.00
2024-02-19T05:51:12.889Z,613.00
2024-02-19T05:52:12.957Z,620.00
2024-02-19T05:53:13.009Z,626.00
2024-02-19T05:54:12.899Z,613.00
2024-02-19T05:55:13.041Z,612.00
2024-02-19T05:56:13.001Z,606.00
2024-02-19T05:57:13.051Z,609.00
2024-02-19T05:58:13.228Z,610.00
2024-02-19T05:59:13.150Z,614.00
2024-02-19T06:00:13.171Z,616.00
2024-02-19T06:01:13.238Z,618.00
2024-02-19T06:02:13.351Z,613.00
2024-02-19T06:03:14.295Z,617.00
2024-02-19T06:04:13.392Z,623.00
2024-02-19T06:05:13.364Z,625.00
2024-02-19T06:06:13.377Z,628.00
2024-02-19T06:07:13.534Z,625.00
2024-02-19T06:08:13.509Z,619.00
2024-02-19T06:09:13.459Z,610.00
2024-02-19T06:10:13.609Z,610.00
2024-02-19T06:11:13.572Z,607.00
2024-02-19T06:12:13.545Z,616.00
2024-02-19T06:13:13.737Z,622.00
2024-02-19T06:14:13.673Z,625.00
2024-02-19T06:15:13.703Z,622.00
2024-02-19T06:16:13.687Z,615.00
2024-02-19T06:17:13.892Z,621.00
2024-02-19T06:18:13.923Z,619.00
2024-02-19T06:19:14.106Z,620.00
2024-02-19T06:20:13.946Z,619.00
2024-02-19T06:21:14.034Z,615.00
2024-02-19T06:22:15.565Z,618.00
2024-02-19T06:23:14.368Z,620.00
2024-02-19T06:24:14.140Z,623.00
2024-02-19T06:25:14.245Z,623.00
2024-02-19T06:26:14.307Z,628.00
2024-02-19T06:27:14.304Z,633.00
2024-02-19T06:28:14.626Z,635.00
2024-02-19T06:29:14.439Z,631.00
2024-02-19T06:30:14.535Z,633.00
2024-02-19T06:31:14.627Z,630.00
2024-02-19T06:32:14.603Z,639.00
2024-02-19T06:33:14.779Z,642.00
2024-02-19T06:34:14.842Z,640.00
2024-02-19T06:35:14.808Z,641.00
2024-02-19T06:36:14.733Z,642.00
2024-02-19T06:37:14.783Z,641.00
2024-02-19T06:38:14.811Z,645.00
2024-02-19T06:39:14.855Z,643.00
2024-02-19T06:40:14.997Z,641.00
2024-02-19T06:41:14.969Z,640.00
2024-02-19T06:42:14.992Z,646.00
2024-02-19T06:43:15.099Z,644.00
2024-02-19T06:44:15.061Z,646.00
2024-02-19T06:45:15.064Z,649.00
2024-02-19T06:46:15.103Z,650.00
2024-02-19T06:47:18.606Z,649.00
2024-02-19T06:48:15.329Z,652.00
2024-02-19T06:49:15.261Z,655.00
2024-02-19T06:50:15.275Z,643.00
2024-02-19T06:51:15.174Z,642.00
2024-02-19T06:52:15.124Z,644.00
2024-02-19T06:53:15.266Z,634.00
2024-02-19T06:54:15.140Z,633.00
2024-02-19T06:55:15.413Z,628.00
2024-02-19T06:56:17.047Z,629.00
2024-02-19T06:57:15.130Z,637.00
2024-02-19T06:58:16.391Z,637.00
2024-02-19T06:59:15.381Z,636.00
2024-02-19T07:00:15.199Z,637.00
2024-02-19T07:01:15.308Z,636.00
2024-02-19T07:02:15.253Z,640.00
2024-02-19T07:03:15.301Z,640.00
2024-02-19T07:04:15.348Z,647.00
2024-02-19T07:05:15.587Z,648.00
2024-02-19T07:06:15.373Z,646.00
2024-02-19T07:07:15.428Z,639.00
2024-02-19T07:08:15.597Z,644.00
2024-02-19T07:09:15.407Z,628.00
2024-02-19T07:10:15.485Z,618.00
2024-02-19T07:11:15.637Z,627.00
2024-02-19T07:12:15.571Z,622.00
2024-02-19T07:13:15.738Z,628.00
2024-02-19T07:14:15.658Z,637.00
2024-02-19T07:15:15.660Z,637.00
2024-02-19T07:16:15.911Z,642.00
2024-02-19T07:17:15.813Z,646.00
2024-02-19T07:18:15.986Z,646.00
2024-02-19T07:19:16.050Z,650.00
2024-02-19T07:20:16.185Z,649.00
2024-02-19T07:21:16.000Z,651.00
2024-02-19T07:22:16.092Z,652.00
2024-02-19T07:23:16.099Z,656.00
2024-02-19T07:24:16.158Z,659.00
2024-02-19T07:26:16.311Z,652.00
2024-02-19T07:27:16.354Z,659.00
2024-02-19T07:28:16.335Z,643.00
2024-02-19T07:29:16.259Z,638.00
2024-02-19T07:30:16.359Z,630.00
2024-02-19T07:31:16.425Z,629.00
2024-02-19T07:32:16.492Z,628.00
2024-02-19T07:33:16.621Z,637.00
2024-02-19T07:34:16.521Z,634.00
2024-02-19T07:35:16.519Z,634.00
2024-02-19T07:36:16.489Z,636.00
2024-02-19T07:37:16.628Z,636.00
2024-02-19T07:38:16.668Z,633.00
2024-02-19T07:39:16.604Z,629.00
2024-02-19T07:40:16.652Z,637.00
2024-02-19T07:41:16.626Z,630.00
2024-02-19T07:42:16.657Z,625.00
2024-02-19T07:43:16.714Z,637.00
2024-02-19T07:44:16.773Z,636.00
2024-02-19T07:45:18.175Z,631.00
2024-02-19T07:46:18.045Z,631.00
2024-02-19T07:47:18.478Z,631.00
2024-02-19T07:48:18.492Z,632.00
2024-02-19T07:49:17.627Z,633.00
2024-02-19T07:50:17.324Z,636.00
2024-02-19T07:51:17.636Z,645.00
2024-02-19T07:52:17.447Z,649.00
2024-02-19T07:53:18.233Z,651.00
2024-02-19T07:54:17.551Z,641.00
2024-02-19T07:55:17.388Z,647.00
2024-02-19T07:56:17.397Z,645.00
2024-02-19T07:57:17.470Z,649.00
2024-02-19T07:58:17.598Z,645.00
2024-02-19T07:59:17.486Z,645.00
2024-02-19T08:00:17.596Z,644.00
2024-02-19T08:01:17.731Z,649.00
2024-02-19T08:02:17.769Z,652.00
2024-02-19T08:03:17.712Z,653.00
2024-02-19T08:04:17.799Z,657.00
2024-02-19T08:05:18.044Z,659.00
2024-02-19T08:06:17.770Z,662.00
2024-02-19T08:07:17.919Z,659.00
2024-02-19T08:08:17.985Z,654.00
2024-02-19T08:09:19.507Z,652.00
2024-02-19T08:10:17.902Z,647.00
2024-02-19T08:11:17.908Z,649.00
2024-02-19T08:12:18.249Z,651.00
2024-02-19T08:13:18.982Z,654.00
2024-02-19T08:14:18.170Z,646.00
2024-02-19T08:15:18.141Z,643.00
2024-02-19T08:16:18.445Z,640.00
2024-02-19T08:17:18.224Z,643.00
2024-02-19T08:18:18.432Z,649.00
2024-02-19T08:19:18.548Z,643.00
2024-02-19T08:20:18.354Z,640.00
2024-02-19T08:21:18.353Z,638.00
2024-02-19T08:22:20.625Z,626.00
2024-02-19T08:23:36.329Z,634.00
2024-02-19T08:24:19.401Z,635.00
2024-02-19T08:25:18.552Z,637.00
2024-02-19T08:26:18.948Z,637.00
2024-02-19T08:27:18.531Z,638.00
2024-02-19T08:28:18.600Z,630.00
2024-02-19T08:29:18.614Z,627.00
2024-02-19T08:30:18.528Z,632.00
2024-02-19T08:31:18.604Z,625.00
2024-02-19T08:32:18.526Z,630.00
2024-02-19T08:33:18.530Z,625.00
2024-02-19T08:34:18.602Z,623.00
2024-02-19T08:35:18.584Z,610.00
2024-02-19T08:36:18.494Z,603.00
2024-02-19T08:37:18.796Z,608.00
2024-02-19T08:38:18.562Z,612.00
2024-02-19T08:39:18.539Z,609.00
2024-02-19T08:40:18.772Z,614.00
2024-02-19T08:42:30.774Z,600.00
2024-02-19T08:43:32.858Z,600.00
2024-02-19T08:44:32.129Z,600.00
2024-02-19T08:45:34.318Z,600.00
2024-02-19T08:46:29.730Z,600.00
2024-02-19T08:47:28.059Z,600.00
2024-02-19T08:48:28.516Z,600.00
2024-02-19T08:49:28.064Z,600.00
2024-02-19T08:50:27.996Z,600.00
2024-02-19T08:51:27.995Z,600.00
2024-02-19T08:52:28.155Z,603.00
2024-02-19T08:53:27.992Z,603.00
2024-02-19T08:54:27.978Z,611.00
2024-02-19T08:55:28.139Z,604.00
2024-02-19T08:56:28.002Z,606.00
2024-02-19T08:57:27.923Z,602.00
2024-02-19T08:58:28.097Z,611.00
2024-02-19T08:59:27.968Z,606.00
2024-02-19T09:00:30.247Z,604.00
2024-02-19T09:01:28.106Z,604.00
2024-02-19T09:02:28.032Z,600.00
2024-02-19T09:03:28.110Z,597.00
2024-02-19T09:04:28.097Z,587.00
2024-02-19T09:05:27.965Z,595.00
2024-02-19T09:06:28.007Z,606.00
2024-02-19T09:07:28.020Z,603.00
2024-02-19T09:08:28.006Z,606.00
2024-02-19T09:09:28.018Z,609.00
2024-02-19T09:10:27.989Z,604.00
2024-02-19T09:11:28.122Z,601.00
2024-02-19T09:12:27.967Z,603.00
2024-02-19T09:13:28.097Z,605.00
2024-02-19T09:14:27.990Z,601.00
2024-02-19T09:15:28.030Z,601.00
2024-02-19T09:16:28.871Z,604.00
2024-02-19T09:17:28.730Z,608.00
2024-02-19T09:18:28.701Z,600.00
2024-02-19T09:19:28.088Z,600.00
2024-02-19T09:20:28.231Z,599.00
2024-02-19T09:21:27.923Z,599.00
2024-02-19T09:22:28.070Z,594.00
2024-02-19T09:23:30.912Z,557.00
2024-02-19T09:24:28.033Z,564.00
2024-02-19T09:25:28.227Z,557.00
2024-02-19T09:26:28.000Z,581.00
2024-02-19T09:27:28.059Z,601.00
2024-02-19T09:28:28.067Z,598.00
2024-02-19T09:29:27.994Z,594.00
2024-02-19T09:30:28.016Z,600.00
2024-02-19T09:31:28.088Z,600.00
2024-02-19T09:32:28.011Z,600.00
2024-02-19T09:33:28.666Z,594.00
2024-02-19T09:34:28.080Z,623.00
2024-02-19T09:35:29.052Z,638.00
2024-02-19T09:36:28.326Z,631.00
2024-02-19T09:37:28.897Z,631.00
2024-02-19T09:38:28.484Z,606.00
2024-02-19T09:39:28.032Z,609.00
2024-02-19T09:40:28.082Z,618.00
2024-02-19T09:41:28.069Z,613.00
2024-02-19T09:42:28.159Z,609.00
2024-02-19T09:43:28.411Z,614.00
2024-02-19T09:44:28.296Z,619.00
2024-02-19T09:45:29.023Z,638.00
2024-02-19T09:46:28.966Z,616.00
2024-02-19T09:47:28.781Z,616.00
2024-02-19T09:48:28.931Z,624.00
2024-02-19T09:49:28.907Z,635.00
2024-02-19T09:50:28.964Z,656.00
2024-02-19T09:51:36.540Z,703.00
2024-02-19T09:52:30.610Z,616.00
2024-02-19T09:53:28.804Z,621.00
2024-02-19T09:54:28.707Z,632.00
2024-02-19T09:55:28.855Z,644.00
2024-02-19T09:56:28.766Z,665.00
2024-02-19T09:57:28.758Z,674.00
2024-02-19T09:58:28.912Z,679.00
2024-02-19T09:59:28.898Z,665.00
2024-02-19T10:00:28.915Z,697.00
2024-02-19T10:01:29.052Z,607.00
2024-02-19T10:02:29.066Z,599.00
2024-02-19T10:03:29.082Z,600.00
2024-02-19T10:04:29.215Z,627.00
2024-02-19T10:05:29.312Z,600.00
2024-02-19T10:06:29.799Z,606.00
2024-02-19T10:07:29.179Z,626.00
2024-02-19T10:08:29.247Z,632.00
2024-02-19T10:09:29.374Z,595.00
2024-02-19T10:10:29.341Z,607.00
2024-02-19T10:11:29.312Z,640.00
2024-02-19T10:12:29.286Z,672.00
2024-02-19T10:13:29.640Z,683.00
2024-02-19T10:14:29.736Z,600.00
2024-02-19T10:15:29.431Z,613.00
2024-02-19T10:16:29.637Z,628.00
2024-02-19T10:17:29.564Z,634.00
2024-02-19T10:18:29.763Z,646.00
2024-02-19T10:19:29.625Z,605.00
2024-02-19T10:20:29.685Z,586.00
2024-02-19T10:21:29.642Z,600.00
2024-02-19T10:22:29.642Z,604.00
2024-02-19T10:23:29.672Z,601.00
2024-02-19T10:24:29.672Z,600.00
2024-02-19T10:25:29.683Z,597.00
2024-02-19T10:26:29.953Z,599.00
2024-02-19T10:27:29.842Z,601.00
2024-02-19T10:28:30.049Z,602.00
2024-02-19T10:29:30.104Z,600.00
2024-02-19T10:30:30.105Z,624.00
2024-02-19T10:31:30.111Z,608.00
2024-02-19T10:32:30.098Z,600.00
2024-02-19T10:33:30.206Z,603.00
2024-02-19T10:34:30.152Z,601.00
2024-02-19T10:35:30.223Z,606.00
2024-02-19T10:36:30.148Z,591.00
2024-02-19T10:37:30.215Z,583.00
2024-02-19T10:38:30.329Z,594.00
2024-02-19T10:39:30.327Z,597.00
2024-02-19T10:40:34.522Z,588.00
2024-02-19T10:41:30.517Z,575.00
2024-02-19T10:42:31.129Z,585.00
2024-02-19T10:43:30.514Z,585.00
2024-02-19T10:44:30.313Z,556.00
2024-02-19T10:45:30.309Z,572.00
2024-02-19T10:46:30.990Z,561.00
2024-02-19T10:47:30.376Z,567.00
2024-02-19T10:48:30.446Z,600.00
2024-02-19T10:49:30.419Z,593.00
2024-02-19T10:50:30.535Z,565.00
2024-02-19T10:51:30.393Z,615.00
2024-02-19T10:52:30.569Z,616.00
2024-02-19T10:53:30.350Z,582.00
2024-02-19T10:54:30.355Z,568.00
2024-02-19T10:55:40.953Z,600.00
2024-02-19T10:56:31.328Z,614.00
2024-02-19T10:57:30.325Z,621.00
2024-02-19T10:58:30.514Z,624.00
2024-02-19T10:59:30.322Z,625.00
2024-02-19T11:00:30.410Z,612.00
2024-02-19T11:01:30.393Z,596.00
2024-02-19T11:02:30.387Z,599.00
2024-02-19T11:03:30.397Z,602.00
2024-02-19T11:04:30.411Z,607.00
2024-02-19T11:05:30.542Z,600.00
2024-02-19T11:06:31.845Z,600.00
2024-02-19T11:07:30.452Z,622.00
2024-02-19T11:08:30.368Z,663.00
2024-02-19T11:09:30.976Z,674.00
2024-02-19T11:10:30.496Z,785.00
2024-02-19T11:11:30.468Z,827.00
2024-02-19T11:12:30.431Z,918.00
2024-02-19T11:13:30.645Z,1044.00
2024-02-19T11:14:30.436Z,1139.00
2024-02-19T11:15:30.410Z,1095.00
2024-02-19T11:16:30.485Z,1153.00
2024-02-19T11:17:30.430Z,1168.00
2024-02-19T11:18:30.552Z,1198.00
2024-02-19T11:19:30.571Z,1287.00
2024-02-19T11:20:30.404Z,1141.00
2024-02-19T11:21:30.454Z,1036.00
2024-02-19T11:22:30.391Z,991.00
2024-02-19T11:23:30.627Z,967.00
2024-02-19T11:24:30.408Z,998.00
2024-02-19T11:25:30.639Z,1079.00
2024-02-19T11:26:30.402Z,1211.00
2024-02-19T11:27:30.458Z,1276.00
2024-02-19T11:28:30.474Z,1277.00
2024-02-19T11:29:39.808Z,1312.00
2024-02-19T11:30:31.434Z,1254.00
2024-02-19T11:31:30.499Z,1216.00
2024-02-19T11:32:30.560Z,1083.00
2024-02-19T11:33:30.561Z,1132.00
2024-02-19T11:34:30.672Z,1005.00
2024-02-19T11:35:32.731Z,920.00
2024-02-19T11:36:30.477Z,898.00
2024-02-19T11:37:30.830Z,902.00
2024-02-19T11:38:31.688Z,933.00
2024-02-19T11:39:31.515Z,922.00
2024-02-19T11:40:33.616Z,927.00
2024-02-19T11:41:30.514Z,923.00
2024-02-19T11:42:30.612Z,942.00
2024-02-19T11:43:30.631Z,960.00
2024-02-19T11:44:30.646Z,1032.00
2024-02-19T11:45:30.434Z,1084.00
2024-02-19T11:46:30.519Z,1036.00
2024-02-19T11:47:30.558Z,986.00
2024-02-19T11:48:30.521Z,1088.00
2024-02-19T11:49:30.708Z,1029.00
2024-02-19T11:50:30.682Z,1019.00
2024-02-19T11:51:30.461Z,1017.00
2024-02-19T11:52:31.374Z,1031.00
2024-02-19T11:53:30.615Z,971.00
2024-02-19T11:54:30.501Z,915.00
2024-02-19T11:55:30.874Z,969.00
2024-02-19T11:56:30.570Z,944.00
2024-02-19T11:57:30.644Z,860.00
2024-02-19T11:58:30.737Z,913.00
2024-02-19T11:59:30.619Z,924.00
2024-02-19T12:00:30.500Z,1119.00
2024-02-19T12:01:30.502Z,1108.00
2024-02-19T12:02:30.522Z,1239.00
2024-02-19T12:03:30.498Z,1303.00
2024-02-19T12:04:30.646Z,1263.00
2024-02-19T12:05:30.593Z,1173.00
2024-02-19T12:06:31.204Z,1145.00
2024-02-19T12:07:33.168Z,1017.00
2024-02-19T12:08:30.603Z,988.00
2024-02-19T12:09:30.635Z,1005.00
2024-02-19T12:10:31.041Z,982.00
2024-02-19T12:11:32.227Z,957.00
2024-02-19T12:12:30.510Z,960.00
2024-02-19T12:13:30.759Z,980.00
2024-02-19T12:14:30.716Z,1021.00
2024-02-19T12:15:30.761Z,1050.00
2024-02-19T12:16:30.615Z,1032.00
2024-02-19T12:17:33.249Z,1010.00
2024-02-19T12:18:30.667Z,1011.00
2024-02-19T12:19:30.774Z,1018.00
2024-02-19T12:20:30.551Z,1067.00